Time;durP1;ratioP1;P1;durP2;ratioP2;P2;SDS_P1;SDS_P2;PMS_P1;PMS_P2;Temp;Humidity;BMP_temperature;BMP_pressure;BME280_temperature;BME280_humidity;BME280_pressure;Samples;Min_cycle;Max_cycle;Signal;HPM_P1;HPM_P2
2023/05/23 00:00:42;;;;;;;33.20;30.15;;;13.90;99.90;;;;;;4942586;28;20070;-76
2023/05/23 00:03:12;;;;;;;32.70;29.48;;;13.90;99.90;;;;;;4941963;28;20425;-76
2023/05/23 00:05:38;;;;;;;33.03;29.88;;;13.90;99.90;;;;;;4976189;28;20085;-76
2023/05/23 00:08:04;;;;;;;32.03;29.02;;;13.90;99.90;;;;;;4992751;28;20072;-77
2023/05/23 00:10:32;;;;;;;30.92;27.88;;;13.90;99.90;;;;;;4993856;28;20558;-77
2023/05/23 00:13:00;;;;;;;31.45;28.10;;;13.90;99.90;;;;;;4961194;28;20046;-76
2023/05/23 00:15:26;;;;;;;28.52;25.52;;;13.90;99.90;;;;;;4960304;28;20184;-76
2023/05/23 00:17:51;;;;;;;29.65;25.98;;;13.90;99.90;;;;;;4990066;28;20125;-76
2023/05/23 00:20:18;;;;;;;33.90;26.35;;;13.80;99.90;;;;;;4959158;28;20043;-77
2023/05/23 00:22:48;;;;;;;32.38;26.98;;;13.80;99.90;;;;;;4974158;28;20049;-76
2023/05/23 00:25:14;;;;;;;33.92;25.10;;;13.70;99.90;;;;;;4967876;28;20045;-76
2023/05/23 00:27:43;;;;;;;33.28;26.67;;;13.70;99.90;;;;;;4958188;28;20113;-76
2023/05/23 00:30:11;;;;;;;33.90;26.90;;;13.60;99.90;;;;;;4942028;28;20042;-76
2023/05/23 00:32:39;;;;;;;33.28;26.88;;;13.60;99.90;;;;;;4975909;28;20129;-76
2023/05/23 00:35:08;;;;;;;33.50;26.73;;;13.50;99.90;;;;;;4974257;28;20042;-76
2023/05/23 00:37:37;;;;;;;36.38;28.38;;;13.50;99.90;;;;;;4941778;28;20512;-76
2023/05/23 00:40:03;;;;;;;37.25;29.73;;;13.50;99.90;;;;;;4958323;28;20051;-77
2023/05/23 00:42:28;;;;;;;37.42;28.55;;;13.50;99.90;;;;;;4979291;28;20097;-76
2023/05/23 00:44:54;;;;;;;36.78;29.20;;;13.40;99.90;;;;;;4976113;28;20488;-76
2023/05/23 00:47:20;;;;;;;38.90;28.75;;;13.40;99.90;;;;;;4960175;28;20474;-76
2023/05/23 00:49:49;;;;;;;37.15;29.60;;;13.40;99.90;;;;;;4960712;28;20129;-77
2023/05/23 00:52:15;;;;;;;43.55;29.63;;;13.40;99.90;;;;;;4972834;28;20056;-76
2023/05/23 00:54:44;;;;;;;40.13;30.08;;;13.40;99.90;;;;;;4952123;28;20045;-76
2023/05/23 00:57:10;;;;;;;40.45;30.27;;;13.30;99.90;;;;;;4943362;28;20047;-77
2023/05/23 00:59:37;;;;;;;40.28;30.00;;;13.30;99.90;;;;;;4940863;28;20124;-76
2023/05/23 01:02:03;;;;;;;38.80;30.63;;;13.20;99.90;;;;;;4955639;28;20408;-77
2023/05/23 01:04:33;;;;;;;43.10;33.38;;;13.30;99.90;;;;;;4960066;28;20485;-76
2023/05/23 01:06:59;;;;;;;44.00;32.92;;;13.30;99.90;;;;;;4959675;28;20413;-76
2023/05/23 01:09:27;;;;;;;50.75;36.88;;;13.30;99.90;;;;;;4941434;28;20034;-77
2023/05/23 01:12:32;;;;;;;48.28;34.55;;;13.30;99.90;;;;;;4969765;28;20051;-77
2023/05/23 01:15:11;;;;;;;48.33;35.33;;;13.20;99.90;;;;;;4942202;28;20548;-77
2023/05/23 01:17:50;;;;;;;48.35;36.22;;;13.20;99.90;;;;;;4953164;28;20370;-76
2023/05/23 01:20:48;;;;;;;36.42;32.08;;;13.10;99.90;;;;;;4957660;28;20046;-76
2023/05/23 01:23:39;;;;;;;48.10;36.97;;;13.10;99.90;;;;;;4971679;28;20085;-77
2023/05/23 01:26:31;;;;;;;48.40;38.30;;;13.10;99.90;;;;;;4959173;28;20031;-76
2023/05/23 01:29:23;;;;;;;49.20;38.55;;;13.10;99.90;;;;;;4967661;28;20073;-77
2023/05/23 01:31:53;;;;;;;51.78;38.88;;;13.10;99.90;;;;;;4974383;28;20112;-77
2023/05/23 01:34:24;;;;;;;47.95;37.88;;;13.10;99.90;;;;;;4958794;28;20049;-77
2023/05/23 01:36:56;;;;;;;48.65;37.47;;;13.00;99.90;;;;;;4960273;28;20054;-76
2023/05/23 01:39:23;;;;;;;50.92;37.30;;;13.00;99.90;;;;;;4957695;28;20045;-76
2023/05/23 01:42:01;;;;;;;43.45;33.45;;;13.00;99.90;;;;;;4952681;28;20456;-76
2023/05/23 01:44:34;;;;;;;49.58;33.60;;;13.00;99.90;;;;;;4972043;28;20125;-77
2023/05/23 01:47:07;;;;;;;47.25;32.97;;;13.00;99.90;;;;;;4940338;28;20393;-76
2023/05/23 01:49:46;;;;;;;51.13;32.38;;;13.00;99.90;;;;;;4966907;28;20062;-76
2023/05/23 01:52:14;;;;;;;48.28;31.48;;;12.90;99.90;;;;;;4954057;28;20184;-77
2023/05/23 01:54:48;;;;;;;34.03;25.65;;;12.90;99.90;;;;;;4988855;28;20559;-77
2023/05/23 01:57:26;;;;;;;35.28;26.42;;;12.90;99.90;;;;;;4940324;28;20039;-76
2023/05/23 01:59:55;;;;;;;38.28;26.63;;;12.80;99.90;;;;;;4955229;28;20054;-76
2023/05/23 02:02:31;;;;;;;34.05;24.00;;;12.80;99.90;;;;;;4969421;28;20504;-77
2023/05/23 02:05:00;;;;;;;33.95;23.45;;;12.80;99.90;;;;;;4971088;28;20398;-77
2023/05/23 02:07:31;;;;;;;36.45;25.45;;;12.80;99.90;;;;;;4958439;28;20057;-77
2023/05/23 02:10:03;;;;;;;32.65;24.70;;;12.70;99.90;;;;;;4973721;28;20050;-77
2023/05/23 02:12:29;;;;;;;37.22;24.63;;;12.80;99.90;;;;;;4970372;28;20513;-77
2023/05/23 02:15:00;;;;;;;32.78;25.08;;;12.70;99.90;;;;;;4971566;28;20049;-77
2023/05/23 02:17:28;;;;;;;31.05;23.67;;;12.70;99.90;;;;;;4955199;28;20097;-77
2023/05/23 02:20:00;;;;;;;33.83;23.42;;;12.70;99.90;;;;;;4952287;28;20417;-77
2023/05/23 02:22:25;;;;;;;31.77;23.52;;;12.70;99.90;;;;;;4975095;28;20046;-77
2023/05/23 02:24:54;;;;;;;33.22;24.20;;;12.70;99.90;;;;;;4958878;28;20046;-77
2023/05/23 02:27:22;;;;;;;34.53;24.88;;;12.70;99.90;;;;;;4959275;28;20038;-77
2023/05/23 02:29:48;;;;;;;32.00;24.38;;;12.70;99.90;;;;;;4960997;28;20038;-76
2023/05/23 02:32:14;;;;;;;35.03;24.27;;;12.60;99.90;;;;;;4960670;28;20061;-77
2023/05/23 02:34:45;;;;;;;34.80;23.88;;;12.60;99.90;;;;;;4975650;28;20398;-76
2023/05/23 02:37:16;;;;;;;31.13;21.92;;;12.60;99.90;;;;;;4947856;28;20038;-76
2023/05/23 02:39:45;;;;;;;30.55;22.33;;;12.60;99.90;;;;;;4977275;28;20042;-76
2023/05/23 02:42:13;;;;;;;30.02;22.65;;;12.50;99.90;;;;;;4975755;28;20039;-77
2023/05/23 02:44:39;;;;;;;33.55;23.85;;;12.50;99.90;;;;;;4951401;28;20046;-77
2023/05/23 02:47:05;;;;;;;35.55;26.23;;;12.50;99.90;;;;;;4949580;28;20380;-77
2023/05/23 02:49:35;;;;;;;36.58;25.65;;;12.50;99.90;;;;;;4955104;28;20045;-77
2023/05/23 02:52:06;;;;;;;32.45;23.90;;;12.50;99.90;;;;;;4969029;28;20038;-77
2023/05/23 02:54:35;;;;;;;30.45;21.38;;;12.40;99.90;;;;;;4951301;28;20501;-77
2023/05/23 02:57:06;;;;;;;35.08;22.77;;;12.50;99.90;;;;;;4965340;28;20092;-77
2023/05/23 02:59:32;;;;;;;29.92;21.50;;;12.50;99.90;;;;;;4959556;28;20074;-77
2023/05/23 03:01:57;;;;;;;31.67;19.65;;;12.40;99.90;;;;;;4961303;28;20066;-77
2023/05/23 03:04:29;;;;;;;29.10;18.73;;;12.40;99.90;;;;;;4943193;28;20043;-77
2023/05/23 03:07:11;;;;;;;28.08;19.55;;;12.40;99.90;;;;;;4943781;28;20039;-77
2023/05/23 03:09:39;;;;;;;26.27;18.10;;;12.40;99.90;;;;;;4966684;28;20074;-77
2023/05/23 03:12:05;;;;;;;27.58;18.90;;;12.40;99.90;;;;;;4968411;28;20038;-77
2023/05/23 03:14:39;;;;;;;28.77;18.90;;;12.40;99.90;;;;;;4961970;28;20053;-77
2023/05/23 03:17:10;;;;;;;30.15;19.23;;;12.30;99.90;;;;;;4960730;28;20042;-77
2023/05/23 03:19:42;;;;;;;31.52;17.45;;;12.30;99.90;;;;;;4956627;28;20043;-77
2023/05/23 03:22:07;;;;;;;25.92;17.38;;;12.30;99.90;;;;;;4952623;28;20126;-78
2023/05/23 03:24:36;;;;;;;26.65;16.60;;;12.30;99.90;;;;;;4962294;28;20038;-78
2023/05/23 03:27:07;;;;;;;26.25;16.45;;;12.30;99.90;;;;;;4993009;28;20038;-77
2023/05/23 03:29:39;;;;;;;25.73;17.67;;;12.20;99.90;;;;;;4954318;28;20034;-77
2023/05/23 03:32:13;;;;;;;30.38;17.80;;;12.20;99.90;;;;;;4954763;28;20043;-77
2023/05/23 03:34:39;;;;;;;25.63;17.08;;;12.20;99.90;;;;;;4948312;28;20035;-77
2023/05/23 03:37:05;;;;;;;31.73;16.42;;;12.20;99.90;;;;;;4963643;28;20042;-77
2023/05/23 03:39:30;;;;;;;26.08;17.27;;;12.20;99.90;;;;;;4957649;28;20038;-77
2023/05/23 03:41:58;;;;;;;25.63;17.60;;;12.20;99.90;;;;;;4961018;28;20042;-77
2023/05/23 03:44:26;;;;;;;26.48;17.33;;;12.20;99.90;;;;;;4960787;28;20278;-77
2023/05/23 03:46:52;;;;;;;27.25;17.63;;;12.20;99.90;;;;;;4975133;28;20121;-77
2023/05/23 03:49:26;;;;;;;25.00;16.05;;;12.20;99.90;;;;;;4994544;28;20448;-78
2023/05/23 03:51:54;;;;;;;27.17;16.70;;;12.20;99.90;;;;;;4960677;28;20396;-78
2023/05/23 03:54:25;;;;;;;23.27;16.35;;;12.20;99.90;;;;;;4961539;28;20045;-77
2023/05/23 03:56:51;;;;;;;29.10;17.70;;;12.20;99.90;;;;;;4976747;28;20116;-78
2023/05/23 03:59:17;;;;;;;26.88;16.60;;;12.20;99.90;;;;;;4974055;28;20565;-78
2023/05/23 04:01:46;;;;;;;26.20;16.83;;;12.30;99.90;;;;;;4956515;28;20042;-77
2023/05/23 04:04:12;;;;;;;25.38;15.75;;;12.20;99.90;;;;;;4943753;28;20034;-77
2023/05/23 04:06:38;;;;;;;23.73;15.32;;;12.20;99.90;;;;;;4957950;28;20113;-77
2023/05/23 04:09:05;;;;;;;26.20;16.45;;;12.20;99.90;;;;;;4993615;28;20050;-77
2023/05/23 04:11:31;;;;;;;23.90;14.95;;;12.20;99.90;;;;;;4952732;28;20050;-77
2023/05/23 04:13:57;;;;;;;26.55;15.43;;;12.20;99.90;;;;;;4989814;28;20121;-77
2023/05/23 04:16:24;;;;;;;29.92;15.70;;;12.10;99.90;;;;;;4941631;28;20047;-77
2023/05/23 04:18:50;;;;;;;25.38;14.77;;;12.20;99.90;;;;;;4959368;28;20129;-77
2023/05/23 04:21:16;;;;;;;22.73;13.48;;;12.10;99.90;;;;;;4959894;28;20081;-78
2023/05/23 04:23:42;;;;;;;23.52;12.43;;;12.10;99.90;;;;;;4977463;28;20086;-77
2023/05/23 04:26:09;;;;;;;25.60;12.95;;;12.10;99.90;;;;;;4993180;28;20599;-77
2023/05/23 04:28:38;;;;;;;19.63;12.57;;;12.20;99.90;;;;;;4976871;28;20042;-77
2023/05/23 04:31:11;;;;;;;22.33;11.50;;;12.10;99.90;;;;;;4958594;28;20047;-77
2023/05/23 04:33:40;;;;;;;25.30;11.73;;;12.10;99.90;;;;;;4960088;28;20420;-78
2023/05/23 04:36:09;;;;;;;19.73;10.80;;;12.10;99.90;;;;;;4960455;28;20065;-77
2023/05/23 04:38:37;;;;;;;18.85;10.48;;;12.10;99.90;;;;;;4959803;28;20046;-77
2023/05/23 04:41:05;;;;;;;22.63;11.90;;;12.00;99.90;;;;;;4974067;28;20240;-77
2023/05/23 04:43:33;;;;;;;20.70;11.07;;;12.10;99.90;;;;;;4983829;28;20053;-77
2023/05/23 04:46:01;;;;;;;21.33;11.07;;;12.00;99.90;;;;;;4941327;28;20054;-77
2023/05/23 04:48:26;;;;;;;23.13;12.40;;;12.10;99.90;;;;;;4969088;28;20512;-78
2023/05/23 04:50:56;;;;;;;24.60;13.73;;;12.00;99.90;;;;;;4953942;28;20082;-77
2023/05/23 04:53:25;;;;;;;21.83;12.38;;;11.90;99.90;;;;;;4952351;28;20042;-77
2023/05/23 04:55:51;;;;;;;22.48;12.50;;;12.00;99.90;;;;;;4960471;28;20057;-77
2023/05/23 04:58:16;;;;;;;23.25;13.75;;;11.90;99.90;;;;;;4957161;28;20121;-76
2023/05/23 05:00:42;;;;;;;17.27;12.10;;;11.90;99.90;;;;;;4952949;28;20235;-77
2023/05/23 05:03:13;;;;;;;22.65;12.82;;;11.90;99.90;;;;;;4952288;28;20043;-78
2023/05/23 05:05:42;;;;;;;21.05;13.52;;;11.90;99.90;;;;;;4959095;28;20157;-76
2023/05/23 05:08:07;;;;;;;24.02;13.10;;;11.80;99.90;;;;;;4957792;28;20126;-77
2023/05/23 05:10:35;;;;;;;21.92;12.48;;;11.80;99.90;;;;;;4959366;28;20420;-77
2023/05/23 05:13:01;;;;;;;23.25;13.52;;;11.80;99.90;;;;;;4958418;28;20057;-78
2023/05/23 05:15:29;;;;;;;18.08;11.55;;;11.80;99.90;;;;;;4958939;28;20042;-77
2023/05/23 05:17:57;;;;;;;20.67;11.73;;;11.80;99.90;;;;;;4991401;28;20100;-78
2023/05/23 05:20:23;;;;;;;24.70;11.48;;;11.80;99.90;;;;;;4992160;28;20046;-78
2023/05/23 05:22:57;;;;;;;19.90;10.10;;;11.80;99.90;;;;;;4986340;28;20053;-77
2023/05/23 05:25:23;;;;;;;24.08;11.30;;;11.80;99.90;;;;;;4986631;28;20055;-77
2023/05/23 05:27:51;;;;;;;21.27;10.57;;;11.80;99.90;;;;;;4947338;28;20502;-77
2023/05/23 05:30:20;;;;;;;22.20;10.65;;;11.80;99.90;;;;;;4964773;28;20381;-77
2023/05/23 05:32:46;;;;;;;21.60;9.02;;;11.90;99.90;;;;;;4956704;28;20046;-77
2023/05/23 05:35:21;;;;;;;19.70;10.50;;;11.90;99.90;;;;;;4951527;28;20093;-78
2023/05/23 05:37:52;;;;;;;20.27;9.20;;;11.80;99.90;;;;;;4957407;28;20043;-77
2023/05/23 05:40:21;;;;;;;16.77;8.48;;;11.80;99.90;;;;;;4988046;28;20053;-77
2023/05/23 05:42:47;;;;;;;17.55;9.13;;;11.80;99.90;;;;;;4953677;28;20125;-77
2023/05/23 05:45:18;;;;;;;15.95;8.90;;;11.80;99.90;;;;;;4951873;28;20448;-77
2023/05/23 05:47:44;;;;;;;15.73;9.25;;;11.80;99.90;;;;;;4973637;28;20093;-77
2023/05/23 05:50:10;;;;;;;16.33;8.90;;;11.70;99.90;;;;;;4972765;28;20129;-78
2023/05/23 05:52:38;;;;;;;21.17;9.25;;;11.70;99.90;;;;;;4966086;28;20046;-78
2023/05/23 05:55:11;;;;;;;18.67;9.18;;;11.70;99.90;;;;;;4947512;28;20067;-77
2023/05/23 05:57:43;;;;;;;16.55;9.18;;;11.70;99.90;;;;;;4939776;28;20179;-78
2023/05/23 06:00:13;;;;;;;15.85;8.65;;;11.60;99.90;;;;;;4950523;28;20046;-77
2023/05/23 06:02:41;;;;;;;15.73;9.00;;;11.60;99.90;;;;;;4951668;28;20049;-77
2023/05/23 06:05:11;;;;;;;17.42;9.32;;;11.60;99.90;;;;;;4957697;28;20179;-77
2023/05/23 06:07:39;;;;;;;20.13;9.83;;;11.60;99.90;;;;;;4940191;28;20085;-77
2023/05/23 06:10:08;;;;;;;20.63;10.90;;;11.60;99.90;;;;;;4947225;28;20030;-77
2023/05/23 06:12:34;;;;;;;21.60;11.07;;;11.60;99.90;;;;;;4986483;28;20046;-78
2023/05/23 06:15:00;;;;;;;14.88;10.00;;;11.60;99.90;;;;;;4954727;28;20052;-76
2023/05/23 06:17:27;;;;;;;15.75;9.73;;;11.60;99.90;;;;;;4967662;28;20046;-77
2023/05/23 06:19:55;;;;;;;19.85;10.50;;;11.50;99.90;;;;;;4982308;28;20408;-77
2023/05/23 06:22:21;;;;;;;18.05;9.13;;;11.50;99.90;;;;;;4987184;28;20085;-76
2023/05/23 06:24:47;;;;;;;16.80;9.60;;;11.40;99.90;;;;;;4949610;28;20488;-77
2023/05/23 06:27:13;;;;;;;13.63;8.55;;;11.40;99.90;;;;;;4972456;28;20073;-77
2023/05/23 06:29:39;;;;;;;16.50;9.52;;;11.40;99.90;;;;;;4971785;28;20077;-78
2023/05/23 06:32:13;;;;;;;15.25;8.77;;;11.40;99.90;;;;;;4964001;28;20047;-77
2023/05/23 06:34:42;;;;;;;12.82;9.00;;;11.40;99.90;;;;;;4939898;28;20050;-77
2023/05/23 06:37:07;;;;;;;17.85;9.65;;;11.50;99.90;;;;;;4955904;28;20034;-78
2023/05/23 06:39:34;;;;;;;13.63;8.32;;;11.60;99.90;;;;;;4969127;28;20046;-77
2023/05/23 06:42:00;;;;;;;15.35;9.13;;;11.70;99.90;;;;;;4953407;28;20045;-78
2023/05/23 06:44:29;;;;;;;16.23;9.40;;;11.80;99.90;;;;;;4958770;28;20073;-78
2023/05/23 06:46:56;;;;;;;12.13;6.53;;;11.90;99.90;;;;;;4974829;28;20409;-77
2023/05/23 06:49:27;;;;;;;11.77;6.53;;;12.00;99.90;;;;;;4948589;28;20038;-78
2023/05/23 06:51:53;;;;;;;14.68;6.97;;;12.00;99.90;;;;;;4952565;28;20520;-77
2023/05/23 06:54:22;;;;;;;16.20;6.53;;;11.90;99.90;;;;;;4963281;28;20039;-77
2023/05/23 06:56:48;;;;;;;12.85;5.90;;;12.00;99.90;;;;;;4980199;28;20035;-78
2023/05/23 06:59:14;;;;;;;13.05;6.55;;;12.00;99.90;;;;;;4961474;28;20043;-78
2023/05/23 07:01:40;;;;;;;14.65;5.88;;;12.10;99.90;;;;;;4987910;28;20054;-77
2023/05/23 07:04:10;;;;;;;12.25;6.25;;;12.10;99.90;;;;;;4958759;28;20125;-77
2023/05/23 07:06:51;;;;;;;15.20;6.50;;;12.20;99.90;;;;;;4953115;28;20085;-77
2023/05/23 07:09:28;;;;;;;13.82;6.22;;;12.20;99.90;;;;;;4963887;28;20039;-77
2023/05/23 07:12:08;;;;;;;12.07;5.75;;;12.20;99.90;;;;;;4958583;28;20043;-77
2023/05/23 07:14:48;;;;;;;;;;;;;;;;;;;;;
2023/05/23 07:17:50;;;;;;;13.43;6.18;;;12.20;99.90;;;;;;4993863;28;20046;-77
2023/05/23 07:20:32;;;;;;;16.85;6.10;;;12.20;99.90;;;;;;4974896;28;20051;-78
2023/05/23 07:26:28;;;;;;;13.27;5.82;;;12.30;99.90;;;;;;4949395;28;20383;-77
2023/05/23 07:29:00;;;;;;;15.35;6.03;;;12.30;99.90;;;;;;4992503;28;20086;-77
2023/05/23 07:31:37;;;;;;;16.55;5.78;;;12.50;99.90;;;;;;4942885;28;20524;-77
2023/05/23 07:34:03;;;;;;;16.35;5.35;;;12.70;99.90;;;;;;4948689;28;20507;-76
2023/05/23 07:36:34;;;;;;;18.95;5.43;;;12.90;99.90;;;;;;4959101;28;20048;-77
2023/05/23 07:39:03;;;;;;;16.80;6.05;;;13.10;99.90;;;;;;4962388;28;20038;-76
2023/05/23 07:41:35;;;;;;;14.80;5.50;;;13.10;99.90;;;;;;4952027;28;20041;-77
2023/05/23 07:44:01;;;;;;;16.73;5.50;;;13.10;99.90;;;;;;4958108;28;20088;-76
2023/05/23 07:46:27;;;;;;;19.77;6.07;;;13.00;99.90;;;;;;4957991;28;20129;-76
2023/05/23 07:48:54;;;;;;;13.65;5.28;;;13.00;99.90;;;;;;4942459;28;20408;-76
2023/05/23 07:51:22;;;;;;;19.65;5.90;;;13.00;99.90;;;;;;4942336;28;20053;-76
2023/05/23 07:53:48;;;;;;;18.88;5.68;;;13.00;99.90;;;;;;4955912;28;20457;-77
2023/05/23 07:56:18;;;;;;;17.25;5.55;;;13.00;99.90;;;;;;4974738;28;20109;-76
2023/05/23 07:58:44;;;;;;;18.80;5.50;;;12.90;99.90;;;;;;4953790;28;20046;-76
2023/05/23 08:01:10;;;;;;;15.02;5.78;;;12.80;99.90;;;;;;4959195;28;20046;-76
2023/05/23 08:03:36;;;;;;;15.52;5.20;;;12.70;99.90;;;;;;4961401;28;20049;-76
2023/05/23 08:06:05;;;;;;;17.17;5.70;;;12.80;99.90;;;;;;4958922;28;20042;-76
2023/05/23 08:08:31;;;;;;;15.30;5.10;;;12.90;99.90;;;;;;4986480;28;20130;-76
2023/05/23 08:11:00;;;;;;;16.15;4.70;;;13.10;99.90;;;;;;4960933;28;20078;-76
2023/05/23 08:13:27;;;;;;;14.73;4.80;;;13.20;99.90;;;;;;4993454;28;20130;-76
2023/05/23 08:15:55;;;;;;;15.35;4.57;;;13.40;99.90;;;;;;4973305;28;20204;-76
2023/05/23 08:18:21;;;;;;;13.85;4.50;;;13.50;99.90;;;;;;4952749;28;20046;-77
2023/05/23 08:20:50;;;;;;;17.08;4.80;;;13.60;99.90;;;;;;4960757;28;20584;-76
2023/05/23 08:23:18;;;;;;;17.63;5.35;;;13.60;99.90;;;;;;4960763;28;20056;-76
2023/05/23 08:25:47;;;;;;;16.33;4.63;;;13.60;99.90;;;;;;4958929;28;20052;-76
2023/05/23 08:28:13;;;;;;;15.27;5.13;;;13.60;99.90;;;;;;4952814;28;20053;-77
2023/05/23 08:30:39;;;;;;;15.10;4.72;;;13.70;99.90;;;;;;4977131;28;20042;-76
2023/05/23 08:33:05;;;;;;;15.80;5.22;;;13.90;99.90;;;;;;4976760;28;20061;-77
2023/05/23 08:35:35;;;;;;;16.23;4.75;;;14.20;99.90;;;;;;4960161;28;20044;-77
2023/05/23 08:38:12;;;;;;;16.98;4.97;;;14.60;99.90;;;;;;4952604;28;20042;-77
2023/05/23 08:40:48;;;;;;;18.60;5.30;;;15.00;99.90;;;;;;4976392;28;20497;-77
2023/05/23 08:43:14;;;;;;;16.15;4.63;;;15.10;99.90;;;;;;4960513;28;20374;-77
2023/05/23 08:45:43;;;;;;;15.30;4.55;;;15.10;99.90;;;;;;4959583;28;20046;-77
2023/05/23 08:48:15;;;;;;;13.35;4.57;;;15.10;99.90;;;;;;4952375;28;20487;-78
2023/05/23 08:50:45;;;;;;;14.68;4.78;;;15.50;99.90;;;;;;4960634;28;20049;-77
2023/05/23 08:53:19;;;;;;;16.40;4.88;;;16.10;99.90;;;;;;4984121;23;20395;-80
2023/05/23 08:55:50;;;;;;;14.88;4.88;;;16.50;99.90;;;;;;5001599;28;20398;-82
2023/05/23 08:58:19;;;;;;;12.20;4.20;;;16.50;99.90;;;;;;5027014;28;20049;-79
2023/05/23 09:00:46;;;;;;;16.10;4.65;;;16.20;99.90;;;;;;5035231;28;20045;-79
2023/05/23 09:03:11;;;;;;;17.38;5.30;;;15.90;99.90;;;;;;5031935;28;20037;-82
2023/05/23 09:05:37;;;;;;;16.40;5.78;;;15.80;99.90;;;;;;4996985;28;20435;-81
2023/05/23 09:08:03;;;;;;;19.27;5.55;;;15.90;99.90;;;;;;5006890;28;20038;-81
2023/05/23 09:10:28;;;;;;;15.77;5.28;;;16.00;99.90;;;;;;5007808;28;20038;-82
2023/05/23 09:12:54;;;;;;;15.13;4.75;;;16.10;99.90;;;;;;5015146;28;20045;-81
2023/05/23 09:15:21;;;;;;;12.63;4.90;;;16.20;99.90;;;;;;5000728;28;20073;-81
2023/05/23 09:17:46;;;;;;;15.77;5.40;;;16.80;99.90;;;;;;4989171;28;20042;-80
2023/05/23 09:20:14;;;;;;;14.75;4.97;;;17.60;89.90;;;;;;5005321;28;20049;-81
2023/05/23 09:22:44;;;;;;;14.63;4.97;;;18.20;86.60;;;;;;4998799;28;20063;-80
2023/05/23 09:25:10;;;;;;;10.40;4.47;;;18.70;89.20;;;;;;4989566;28;20084;-80
2023/05/23 09:27:35;;;;;;;11.00;4.75;;;19.30;85.80;;;;;;5001492;28;20038;-81
2023/05/23 09:30:09;;;;;;;15.65;5.18;;;19.80;77.80;;;;;;4988605;28;20395;-81
2023/05/23 09:32:35;;;;;;;16.30;4.20;;;20.10;79.80;;;;;;4989001;28;20081;-80
2023/05/23 09:35:06;;;;;;;13.88;4.30;;;20.20;79.40;;;;;;4989582;28;20129;-81
2023/05/23 09:37:36;;;;;;;15.10;4.57;;;19.80;76.00;;;;;;5003790;28;20042;-81
2023/05/23 09:40:09;;;;;;;13.70;5.05;;;19.40;76.30;;;;;;4994535;28;20103;-80
2023/05/23 09:42:35;;;;;;;12.73;4.13;;;19.30;79.00;;;;;;4999300;28;20088;-81
2023/05/23 09:45:01;;;;;;;11.63;3.70;;;18.90;74.40;;;;;;4976761;28;20607;-86
2023/05/23 09:47:27;;;;;;;13.85;4.10;;;18.30;73.20;;;;;;4995605;28;20069;-82
2023/05/23 09:49:53;;;;;;;13.52;4.60;;;18.00;73.30;;;;;;4994374;28;20088;-81
2023/05/23 09:52:21;;;;;;;12.20;4.20;;;18.40;74.90;;;;;;5017612;28;20034;-82
2023/05/23 09:54:47;;;;;;;12.10;4.32;;;19.10;74.50;;;;;;4984708;28;20547;-82
2023/05/23 09:57:15;;;;;;;12.68;4.13;;;19.80;74.10;;;;;;4985154;28;20122;-83
2023/05/23 09:59:52;;;;;;;9.93;3.95;;;20.10;73.90;;;;;;4978961;28;20113;-82
2023/05/23 10:02:44;;;;;;;12.55;3.95;;;20.20;70.60;;;;;;4984801;28;20042;-83
2023/05/23 10:05:29;;;;;;;10.97;3.70;;;19.70;68.30;;;;;;5007756;28;20042;-81
2023/05/23 10:07:59;;;;;;;13.10;4.93;;;19.10;67.40;;;;;;4976017;28;20312;-82
2023/05/23 10:10:27;;;;;;;11.55;4.18;;;19.10;68.50;;;;;;4959635;28;20576;-82
2023/05/23 10:12:56;;;;;;;15.13;4.55;;;19.40;68.70;;;;;;4990036;28;20034;-80
2023/05/23 10:15:29;;;;;;;13.50;4.32;;;19.30;65.40;;;;;;4975814;28;20046;-83
2023/05/23 10:18:09;;;;;;;14.45;4.70;;;18.50;70.60;;;;;;4975022;28;20046;-83
2023/05/23 10:20:38;;;;;;;12.85;4.70;;;18.10;70.00;;;;;;4990483;28;20054;-83
2023/05/23 10:23:04;;;;;;;12.48;4.60;;;18.20;76.30;;;;;;4984845;28;20034;-82
2023/05/23 10:25:30;;;;;;;12.77;4.22;;;18.70;81.20;;;;;;4967021;28;20034;-84
2023/05/23 10:27:57;;;;;;;9.68;3.67;;;19.20;73.60;;;;;;4981752;28;20242;-83
2023/05/23 10:30:26;;;;;;;11.48;4.00;;;19.50;69.80;;;;;;4984586;28;20049;-82
2023/05/23 10:32:56;;;;;;;12.25;3.83;;;19.70;70.00;;;;;;4982947;28;20394;-82
2023/05/23 10:35:41;;;;;;;11.00;4.00;;;20.30;67.60;;;;;;4975825;28;20039;-81
2023/05/23 10:38:42;;;;;;;10.90;3.80;;;20.90;66.20;;;;;;4967401;28;20504;-81
2023/05/23 10:41:17;;;;;;;10.02;3.33;;;21.10;60.90;;;;;;4961535;28;20066;-82
2023/05/23 10:43:50;;;;;;;11.20;3.53;;;20.80;63.70;;;;;;4983966;28;20050;-82
2023/05/23 10:46:20;;;;;;;11.85;4.25;;;20.60;65.10;;;;;;4981316;28;20038;-82
2023/05/23 10:48:45;;;;;;;11.90;4.05;;;20.30;66.30;;;;;;4984365;28;20404;-80
2023/05/23 10:51:16;;;;;;;11.93;3.75;;;20.00;63.30;;;;;;4996724;28;20042;-80
2023/05/23 10:53:43;;;;;;;13.07;3.58;;;19.40;64.60;;;;;;4981527;28;20031;-82
2023/05/23 10:56:20;;;;;;;10.68;3.92;;;19.10;67.00;;;;;;4987004;28;20046;-79
2023/05/23 10:58:50;;;;;;;9.70;3.42;;;19.40;66.10;;;;;;4982976;28;20508;-81
2023/05/23 11:01:18;;;;;;;14.10;4.10;;;19.90;67.10;;;;;;4977542;28;20049;-81
2023/05/23 11:03:47;;;;;;;13.73;3.78;;;19.80;67.10;;;;;;4963652;28;20089;-81
2023/05/23 11:06:44;;;;;;;11.48;3.60;;;19.40;65.90;;;;;;4983210;28;20129;-81
2023/05/23 11:09:11;;;;;;;16.83;3.60;;;19.10;68.40;;;;;;4986433;28;20403;-81
2023/05/23 11:12:01;;;;;;;11.32;3.33;;;19.00;70.20;;;;;;4998071;28;20045;-81
2023/05/23 11:14:31;;;;;;;12.90;4.25;;;19.60;70.40;;;;;;4988738;28;20137;-82
2023/05/23 11:16:58;;;;;;;14.32;4.07;;;20.00;67.70;;;;;;4965989;28;20533;-82
2023/05/23 11:19:26;;;;;;;11.38;3.70;;;19.60;65.20;;;;;;4972713;28;20050;-81
2023/05/23 11:22:04;;;;;;;11.60;3.95;;;19.20;66.40;;;;;;4966252;28;20043;-80
2023/05/23 11:24:52;;;;;;;12.25;4.00;;;19.00;66.40;;;;;;4977294;28;20034;-81
2023/05/23 11:27:38;;;;;;;14.07;4.22;;;18.80;67.30;;;;;;4979831;28;20898;-82
2023/05/23 11:30:07;;;;;;;11.52;3.53;;;18.70;68.10;;;;;;4992907;28;20125;-80
2023/05/23 11:32:33;;;;;;;11.68;3.85;;;18.90;67.20;;;;;;4995969;28;20046;-81
2023/05/23 11:35:03;;;;;;;15.70;4.10;;;19.20;65.00;;;;;;4994634;28;20065;-80
2023/05/23 11:37:29;;;;;;;13.40;3.53;;;19.20;65.10;;;;;;4978636;28;20038;-80
2023/05/23 11:39:55;;;;;;;8.50;3.15;;;19.10;64.80;;;;;;4978789;28;20073;-80
2023/05/23 11:42:22;;;;;;;10.63;3.63;;;19.50;64.20;;;;;;4978155;28;20137;-83
2023/05/23 11:44:49;;;;;;;12.18;3.65;;;19.70;63.60;;;;;;4989340;28;20035;-81
2023/05/23 11:47:15;;;;;;;11.57;3.80;;;20.00;65.60;;;;;;4977782;28;20046;-80
2023/05/23 11:49:45;;;;;;;12.40;3.95;;;20.20;64.70;;;;;;4993234;28;20038;-82
2023/05/23 11:52:11;;;;;;;11.07;3.72;;;20.30;64.30;;;;;;4979104;28;20035;-81
2023/05/23 11:54:40;;;;;;;11.27;3.80;;;20.10;62.10;;;;;;4997236;28;20124;-81
2023/05/23 11:57:05;;;;;;;11.68;4.07;;;19.60;62.70;;;;;;5013872;28;20523;-80
2023/05/23 11:59:32;;;;;;;11.98;3.80;;;19.90;66.10;;;;;;5013144;28;20045;-81
2023/05/23 12:01:58;;;;;;;11.00;4.05;;;19.90;63.50;;;;;;4996421;28;20045;-81
2023/05/23 12:04:25;;;;;;;12.45;3.78;;;19.40;62.80;;;;;;4993789;28;20034;-79
2023/05/23 12:06:51;;;;;;;13.10;3.72;;;18.90;66.00;;;;;;4993564;28;20420;-81
2023/05/23 12:09:16;;;;;;;9.95;3.28;;;19.30;68.00;;;;;;4977775;28;20042;-81
2023/05/23 12:11:44;;;;;;;12.40;3.63;;;20.00;65.80;;;;;;4974413;28;20113;-81
2023/05/23 12:14:15;;;;;;;8.68;3.60;;;19.90;64.20;;;;;;4995567;28;20050;-80
2023/05/23 12:16:47;;;;;;;12.05;3.70;;;19.80;62.80;;;;;;4997406;28;20045;-81
2023/05/23 12:19:16;;;;;;;11.27;3.47;;;19.50;63.20;;;;;;4992827;28;20544;-80
2023/05/23 12:21:42;;;;;;;9.40;3.38;;;19.10;64.40;;;;;;4999241;28;20089;-81
2023/05/23 12:24:18;;;;;;;10.57;3.60;;;19.00;66.70;;;;;;4995149;28;20085;-82
2023/05/23 12:26:51;;;;;;;10.32;3.63;;;19.60;64.50;;;;;;4994249;28;20520;-81
2023/05/23 12:29:19;;;;;;;13.80;4.00;;;19.80;65.20;;;;;;4972511;28;20068;-81
2023/05/23 12:31:47;;;;;;;14.93;4.15;;;19.50;63.10;;;;;;4996528;28;20548;-81
2023/05/23 12:34:13;;;;;;;10.15;3.50;;;18.90;65.40;;;;;;5012139;28;20056;-81
2023/05/23 12:36:41;;;;;;;16.83;4.18;;;18.40;66.00;;;;;;4996650;28;20042;-82
2023/05/23 12:39:08;;;;;;;16.30;4.28;;;17.90;65.80;;;;;;5010664;28;20140;-81
2023/05/23 12:41:33;;;;;;;12.68;4.40;;;17.40;67.70;;;;;;4997412;28;20042;-80
2023/05/23 12:44:01;;;;;;;10.88;3.17;;;17.10;68.10;;;;;;4996523;28;20124;-81
2023/05/23 12:46:27;;;;;;;13.20;3.85;;;16.70;68.80;;;;;;4995361;28;20041;-81
2023/05/23 12:48:53;;;;;;;12.95;3.78;;;16.70;70.00;;;;;;4977607;28;20125;-82